sensor_id;sensor_type;location;lat;lon;timestamp;P1;P2;P0
77840;PMS5003;68598;43.188;-80.242;2023-03-14T00:00:16;9;9;
77840;PMS5003;68598;43.188;-80.242;2023-03-14T00:02:41;12;10;
77840;PMS5003;68598;43.188;-80.242;2023-03-14T00:05:07;11;11;
77840;PMS5003;68598;43.188;-80.242;2023-03-14T00:07:32;11;11;
77840;PMS5003;68598;43.188;-80.242;2023-03-14T00:09:58;10;10;
77840;PMS5003;68598;43.188;-80.242;2023-03-14T00:12:23;9;9;
77840;PMS5003;68598;43.188;-80.242;2023-03-14T00:14:49;8;8;
77840;PMS5003;68598;43.188;-80.242;2023-03-14T00:17:14;10;10;
77840;PMS5003;68598;43.188;-80.242;2023-03-14T00:19:40;11;10;
77840;PMS5003;68598;43.188;-80.242;2023-03-14T00:22:06;8;8;
77840;PMS5003;68598;43.188;-80.242;2023-03-14T00:24:31;7;7;
77840;PMS5003;68598;43.188;-80.242;2023-03-14T00:26:57;11;10;
77840;PMS5003;68598;43.188;-80.242;2023-03-14T00:29:22;8;8;
77840;PMS5003;68598;43.188;-80.242;2023-03-14T00:31:48;9;9;
77840;PMS5003;68598;43.188;-80.242;2023-03-14T00:34:14;8;8;
77840;PMS5003;68598;43.188;-80.242;2023-03-14T00:36:39;6;6;
77840;PMS5003;68598;43.188;-80.242;2023-03-14T00:39:05;7;7;
77840;PMS5003;68598;43.188;-80.242;2023-03-14T00:41:30;7;7;
77840;PMS5003;68598;43.188;-80.242;2023-03-14T00:43:56;8;7;
77840;PMS5003;68598;43.188;-80.242;2023-03-14T00:46:21;7;7;
77840;PMS5003;68598;43.188;-80.242;2023-03-14T00:48:47;5;5;
77840;PMS5003;68598;43.188;-80.242;2023-03-14T00:51:13;6;6;
77840;PMS5003;68598;43.188;-80.242;2023-03-14T00:53:38;7;6;
77840;PMS5003;68598;43.188;-80.242;2023-03-14T00:56:04;6;6;
77840;PMS5003;68598;43.188;-80.242;2023-03-14T00:58:30;6;6;
77840;PMS5003;68598;43.188;-80.242;2023-03-14T01:00:55;5;5;
77840;PMS5003;68598;43.188;-80.242;2023-03-14T01:03:20;7;7;
77840;PMS5003;68598;43.188;-80.242;2023-03-14T01:05:46;4;4;
77840;PMS5003;68598;43.188;-80.242;2023-03-14T01:08:17;5;5;
77840;PMS5003;68598;43.188;-80.242;2023-03-14T01:10:38;5;5;
77840;PMS5003;68598;43.188;-80.242;2023-03-14T01:13:03;5;5;
77840;PMS5003;68598;43.188;-80.242;2023-03-14T01:15:28;6;6;
77840;PMS5003;68598;43.188;-80.242;2023-03-14T01:17:54;5;4;
77840;PMS5003;68598;43.188;-80.242;2023-03-14T01:20:20;5;5;
77840;PMS5003;68598;43.188;-80.242;2023-03-14T01:22:45;5;5;
77840;PMS5003;68598;43.188;-80.242;2023-03-14T01:25:14;5;5;
77840;PMS5003;68598;43.188;-80.242;2023-03-14T01:27:36;5;5;
77840;PMS5003;68598;43.188;-80.242;2023-03-14T01:32:34;6;5;
77840;PMS5003;68598;43.188;-80.242;2023-03-14T01:34:53;5;5;
77840;PMS5003;68598;43.188;-80.242;2023-03-14T01:37:18;5;4;
77840;PMS5003;68598;43.188;-80.242;2023-03-14T01:39:44;6;5;
77840;PMS5003;68598;43.188;-80.242;2023-03-14T01:42:09;4;4;
77840;PMS5003;68598;43.188;-80.242;2023-03-14T01:47:01;5;5;
77840;PMS5003;68598;43.188;-80.242;2023-03-14T01:49:27;5;5;
77840;PMS5003;68598;43.188;-80.242;2023-03-14T01:51:53;4;4;
77840;PMS5003;68598;43.188;-80.242;2023-03-14T01:54:19;5;5;
77840;PMS5003;68598;43.188;-80.242;2023-03-14T01:56:43;5;5;
77840;PMS5003;68598;43.188;-80.242;2023-03-14T01:59:08;3;3;
77840;PMS5003;68598;43.188;-80.242;2023-03-14T02:01:34;3;3;
77840;PMS5003;68598;43.188;-80.242;2023-03-14T02:04:00;3;3;
77840;PMS5003;68598;43.188;-80.242;2023-03-14T02:06:26;3;3;
77840;PMS5003;68598;43.188;-80.242;2023-03-14T02:08:51;4;4;
77840;PMS5003;68598;43.188;-80.242;2023-03-14T02:11:17;3;3;
77840;PMS5003;68598;43.188;-80.242;2023-03-14T02:13:42;1;1;
77840;PMS5003;68598;43.188;-80.242;2023-03-14T02:16:08;2;2;
77840;PMS5003;68598;43.188;-80.242;2023-03-14T02:18:33;3;3;
77840;PMS5003;68598;43.188;-80.242;2023-03-14T02:21:00;2;2;
77840;PMS5003;68598;43.188;-80.242;2023-03-14T02:23:26;4;4;
77840;PMS5003;68598;43.188;-80.242;2023-03-14T02:25:51;2;2;
77840;PMS5003;68598;43.188;-80.242;2023-03-14T02:28:15;2;2;
77840;PMS5003;68598;43.188;-80.242;2023-03-14T02:30:40;2;2;
77840;PMS5003;68598;43.188;-80.242;2023-03-14T02:33:07;2;2;
77840;PMS5003;68598;43.188;-80.242;2023-03-14T02:35:33;2;2;
77840;PMS5003;68598;43.188;-80.242;2023-03-14T02:37:59;2;2;
77840;PMS5003;68598;43.188;-80.242;2023-03-14T02:40:23;3;3;
77840;PMS5003;68598;43.188;-80.242;2023-03-14T02:42:48;2;2;
77840;PMS5003;68598;43.188;-80.242;2023-03-14T02:47:40;2;2;
77840;PMS5003;68598;43.188;-80.242;2023-03-14T02:50:08;3;3;
77840;PMS5003;68598;43.188;-80.242;2023-03-14T02:52:30;2;2;
77840;PMS5003;68598;43.188;-80.242;2023-03-14T02:54:56;1;1;
77840;PMS5003;68598;43.188;-80.242;2023-03-14T02:57:21;2;2;
77840;PMS5003;68598;43.188;-80.242;2023-03-14T02:59:47;1;1;
77840;PMS5003;68598;43.188;-80.242;2023-03-14T03:02:12;1;1;
77840;PMS5003;68598;43.188;-80.242;2023-03-14T03:04:38;2;2;
77840;PMS5003;68598;43.188;-80.242;2023-03-14T03:07:03;1;1;
77840;PMS5003;68598;43.188;-80.242;2023-03-14T03:09:29;1;1;
77840;PMS5003;68598;43.188;-80.242;2023-03-14T03:11:54;2;2;
77840;PMS5003;68598;43.188;-80.242;2023-03-14T03:14:20;2;2;
77840;PMS5003;68598;43.188;-80.242;2023-03-14T03:16:46;1;1;
77840;PMS5003;68598;43.188;-80.242;2023-03-14T03:19:11;0;0;
77840;PMS5003;68598;43.188;-80.242;2023-03-14T03:21:37;2;2;
77840;PMS5003;68598;43.188;-80.242;2023-03-14T03:24:02;0;0;
77840;PMS5003;68598;43.188;-80.242;2023-03-14T03:26:28;1;1;
77840;PMS5003;68598;43.188;-80.242;2023-03-14T03:28:53;2;2;
77840;PMS5003;68598;43.188;-80.242;2023-03-14T03:31:19;2;2;
77840;PMS5003;68598;43.188;-80.242;2023-03-14T03:33:44;1;1;
77840;PMS5003;68598;43.188;-80.242;2023-03-14T03:36:10;3;3;
77840;PMS5003;68598;43.188;-80.242;2023-03-14T03:38:36;1;0;
77840;PMS5003;68598;43.188;-80.242;2023-03-14T03:41:02;1;1;
77840;PMS5003;68598;43.188;-80.242;2023-03-14T03:43:26;1;1;
77840;PMS5003;68598;43.188;-80.242;2023-03-14T03:45:52;1;1;
77840;PMS5003;68598;43.188;-80.242;2023-03-14T03:48:17;2;2;
77840;PMS5003;68598;43.188;-80.242;2023-03-14T03:50:44;1;1;
77840;PMS5003;68598;43.188;-80.242;2023-03-14T03:53:08;2;1;
77840;PMS5003;68598;43.188;-80.242;2023-03-14T03:55:34;1;1;
77840;PMS5003;68598;43.188;-80.242;2023-03-14T03:58:00;1;1;
77840;PMS5003;68598;43.188;-80.242;2023-03-14T04:00:25;1;1;
77840;PMS5003;68598;43.188;-80.242;2023-03-14T04:02:51;2;2;
77840;PMS5003;68598;43.188;-80.242;2023-03-14T04:05:16;1;1;
77840;PMS5003;68598;43.188;-80.242;2023-03-14T04:07:42;2;2;
77840;PMS5003;68598;43.188;-80.242;2023-03-14T04:10:08;2;2;
77840;PMS5003;68598;43.188;-80.242;2023-03-14T04:12:33;2;2;
77840;PMS5003;68598;43.188;-80.242;2023-03-14T04:14:58;2;2;
77840;PMS5003;68598;43.188;-80.242;2023-03-14T04:17:24;1;1;
77840;PMS5003;68598;43.188;-80.242;2023-03-14T04:19:50;1;1;
77840;PMS5003;68598;43.188;-80.242;2023-03-14T04:22:15;1;1;
77840;PMS5003;68598;43.188;-80.242;2023-03-14T04:24:40;1;1;
77840;PMS5003;68598;43.188;-80.242;2023-03-14T04:27:06;2;2;
77840;PMS5003;68598;43.188;-80.242;2023-03-14T04:29:31;1;1;
77840;PMS5003;68598;43.188;-80.242;2023-03-14T04:31:57;1;1;
77840;PMS5003;68598;43.188;-80.242;2023-03-14T04:34:23;1;1;
77840;PMS5003;68598;43.188;-80.242;2023-03-14T04:36:48;1;1;
77840;PMS5003;68598;43.188;-80.242;2023-03-14T04:39:14;2;1;
77840;PMS5003;68598;43.188;-80.242;2023-03-14T04:41:39;2;2;
77840;PMS5003;68598;43.188;-80.242;2023-03-14T04:44:05;2;2;
77840;PMS5003;68598;43.188;-80.242;2023-03-14T04:46:30;2;2;
77840;PMS5003;68598;43.188;-80.242;2023-03-14T04:48:56;1;1;
77840;PMS5003;68598;43.188;-80.242;2023-03-14T04:51:21;1;1;
77840;PMS5003;68598;43.188;-80.242;2023-03-14T04:53:47;1;1;
77840;PMS5003;68598;43.188;-80.242;2023-03-14T04:56:12;2;2;
77840;PMS5003;68598;43.188;-80.242;2023-03-14T04:58:38;1;1;
77840;PMS5003;68598;43.188;-80.242;2023-03-14T05:01:04;2;2;
77840;PMS5003;68598;43.188;-80.242;2023-03-14T05:03:29;2;2;
77840;PMS5003;68598;43.188;-80.242;2023-03-14T05:05:54;1;1;
77840;PMS5003;68598;43.188;-80.242;2023-03-14T05:08:20;2;2;
77840;PMS5003;68598;43.188;-80.242;2023-03-14T05:13:11;1;1;
77840;PMS5003;68598;43.188;-80.242;2023-03-14T05:15:37;3;3;
77840;PMS5003;68598;43.188;-80.242;2023-03-14T05:18:02;2;2;
77840;PMS5003;68598;43.188;-80.242;2023-03-14T05:20:28;1;1;
77840;PMS5003;68598;43.188;-80.242;2023-03-14T05:22:53;2;2;
77840;PMS5003;68598;43.188;-80.242;2023-03-14T05:25:19;1;1;
77840;PMS5003;68598;43.188;-80.242;2023-03-14T05:27:44;2;2;
77840;PMS5003;68598;43.188;-80.242;2023-03-14T05:30:10;2;2;
77840;PMS5003;68598;43.188;-80.242;2023-03-14T05:32:35;2;2;
77840;PMS5003;68598;43.188;-80.242;2023-03-14T05:35:01;3;2;
77840;PMS5003;68598;43.188;-80.242;2023-03-14T05:37:26;2;2;
77840;PMS5003;68598;43.188;-80.242;2023-03-14T05:39:52;2;2;
77840;PMS5003;68598;43.188;-80.242;2023-03-14T05:42:17;2;2;
77840;PMS5003;68598;43.188;-80.242;2023-03-14T05:44:43;2;2;
77840;PMS5003;68598;43.188;-80.242;2023-03-14T05:47:09;2;2;
77840;PMS5003;68598;43.188;-80.242;2023-03-14T05:49:34;2;2;
77840;PMS5003;68598;43.188;-80.242;2023-03-14T05:52:00;2;2;
77840;PMS5003;68598;43.188;-80.242;2023-03-14T05:54:25;2;2;
77840;PMS5003;68598;43.188;-80.242;2023-03-14T05:56:51;2;2;
77840;PMS5003;68598;43.188;-80.242;2023-03-14T05:59:16;3;3;
77840;PMS5003;68598;43.188;-80.242;2023-03-14T06:01:42;3;3;
77840;PMS5003;68598;43.188;-80.242;2023-03-14T06:04:07;2;2;
77840;PMS5003;68598;43.188;-80.242;2023-03-14T06:06:33;3;3;
77840;PMS5003;68598;43.188;-80.242;2023-03-14T06:08:58;2;2;
77840;PMS5003;68598;43.188;-80.242;2023-03-14T06:11:24;3;3;
77840;PMS5003;68598;43.188;-80.242;2023-03-14T06:13:50;2;2;
77840;PMS5003;68598;43.188;-80.242;2023-03-14T06:16:15;2;2;
77840;PMS5003;68598;43.188;-80.242;2023-03-14T06:18:40;2;2;
77840;PMS5003;68598;43.188;-80.242;2023-03-14T06:21:06;2;2;
77840;PMS5003;68598;43.188;-80.242;2023-03-14T06:23:32;2;2;
77840;PMS5003;68598;43.188;-80.242;2023-03-14T06:25:57;1;1;
77840;PMS5003;68598;43.188;-80.242;2023-03-14T06:28:22;2;2;
77840;PMS5003;68598;43.188;-80.242;2023-03-14T06:30:48;2;2;
77840;PMS5003;68598;43.188;-80.242;2023-03-14T06:33:13;2;2;
77840;PMS5003;68598;43.188;-80.242;2023-03-14T06:35:39;2;2;
77840;PMS5003;68598;43.188;-80.242;2023-03-14T06:38:05;2;2;
77840;PMS5003;68598;43.188;-80.242;2023-03-14T06:40:30;2;2;
77840;PMS5003;68598;43.188;-80.242;2023-03-14T06:42:56;3;3;
77840;PMS5003;68598;43.188;-80.242;2023-03-14T06:45:21;2;2;
77840;PMS5003;68598;43.188;-80.242;2023-03-14T06:47:47;3;3;
77840;PMS5003;68598;43.188;-80.242;2023-03-14T06:50:12;2;2;
77840;PMS5003;68598;43.188;-80.242;2023-03-14T06:52:38;2;2;
77840;PMS5003;68598;43.188;-80.242;2023-03-14T06:55:03;2;2;
77840;PMS5003;68598;43.188;-80.242;2023-03-14T06:57:29;2;2;
77840;PMS5003;68598;43.188;-80.242;2023-03-14T06:59:55;2;2;
77840;PMS5003;68598;43.188;-80.242;2023-03-14T07:02:20;2;2;
77840;PMS5003;68598;43.188;-80.242;2023-03-14T07:04:45;0;0;
77840;PMS5003;68598;43.188;-80.242;2023-03-14T07:07:11;3;3;
77840;PMS5003;68598;43.188;-80.242;2023-03-14T07:09:36;2;2;
77840;PMS5003;68598;43.188;-80.242;2023-03-14T07:12:02;2;2;
77840;PMS5003;68598;43.188;-80.242;2023-03-14T07:14:27;2;2;
77840;PMS5003;68598;43.188;-80.242;2023-03-14T07:16:53;3;3;
77840;PMS5003;68598;43.188;-80.242;2023-03-14T07:19:19;2;2;
77840;PMS5003;68598;43.188;-80.242;2023-03-14T07:21:44;2;2;
77840;PMS5003;68598;43.188;-80.242;2023-03-14T07:24:10;1;1;
77840;PMS5003;68598;43.188;-80.242;2023-03-14T07:26:35;2;2;
77840;PMS5003;68598;43.188;-80.242;2023-03-14T07:29:01;2;2;
77840;PMS5003;68598;43.188;-80.242;2023-03-14T07:31:26;2;2;
77840;PMS5003;68598;43.188;-80.242;2023-03-14T07:33:52;2;2;
77840;PMS5003;68598;43.188;-80.242;2023-03-14T07:36:17;2;2;
77840;PMS5003;68598;43.188;-80.242;2023-03-14T07:38:43;2;2;
77840;PMS5003;68598;43.188;-80.242;2023-03-14T07:41:08;0;0;
77840;PMS5003;68598;43.188;-80.242;2023-03-14T07:43:34;1;1;
77840;PMS5003;68598;43.188;-80.242;2023-03-14T07:45:59;1;1;
77840;PMS5003;68598;43.188;-80.242;2023-03-14T07:48:25;2;2;
77840;PMS5003;68598;43.188;-80.242;2023-03-14T07:50:51;1;1;
77840;PMS5003;68598;43.188;-80.242;2023-03-14T07:53:16;1;1;
77840;PMS5003;68598;43.188;-80.242;2023-03-14T07:55:41;2;2;
77840;PMS5003;68598;43.188;-80.242;2023-03-14T07:58:07;1;1;
77840;PMS5003;68598;43.188;-80.242;2023-03-14T08:00:33;1;1;
77840;PMS5003;68598;43.188;-80.242;2023-03-14T08:02:58;2;2;
77840;PMS5003;68598;43.188;-80.242;2023-03-14T08:05:24;1;1;
77840;PMS5003;68598;43.188;-80.242;2023-03-14T08:07:49;1;1;
77840;PMS5003;68598;43.188;-80.242;2023-03-14T08:10:15;2;2;
77840;PMS5003;68598;43.188;-80.242;2023-03-14T08:12:40;2;1;
77840;PMS5003;68598;43.188;-80.242;2023-03-14T08:15:06;2;2;
77840;PMS5003;68598;43.188;-80.242;2023-03-14T08:17:31;1;1;
77840;PMS5003;68598;43.188;-80.242;2023-03-14T08:19:57;0;0;
77840;PMS5003;68598;43.188;-80.242;2023-03-14T08:22:22;1;1;
77840;PMS5003;68598;43.188;-80.242;2023-03-14T08:24:48;1;1;
77840;PMS5003;68598;43.188;-80.242;2023-03-14T08:27:13;1;1;
77840;PMS5003;68598;43.188;-80.242;2023-03-14T08:29:39;0;0;
77840;PMS5003;68598;43.188;-80.242;2023-03-14T08:32:04;1;1;
77840;PMS5003;68598;43.188;-80.242;2023-03-14T08:34:30;1;1;
77840;PMS5003;68598;43.188;-80.242;2023-03-14T08:36:56;1;1;
77840;PMS5003;68598;43.188;-80.242;2023-03-14T08:39:21;1;1;
77840;PMS5003;68598;43.188;-80.242;2023-03-14T08:41:46;0;0;
77840;PMS5003;68598;43.188;-80.242;2023-03-14T08:44:12;1;1;
77840;PMS5003;68598;43.188;-80.242;2023-03-14T08:46:38;1;1;
77840;PMS5003;68598;43.188;-80.242;2023-03-14T08:49:03;1;1;
77840;PMS5003;68598;43.188;-80.242;2023-03-14T08:51:29;0;0;
77840;PMS5003;68598;43.188;-80.242;2023-03-14T08:53:54;1;1;
77840;PMS5003;68598;43.188;-80.242;2023-03-14T08:56:20;0;0;
77840;PMS5003;68598;43.188;-80.242;2023-03-14T08:58:45;1;1;
77840;PMS5003;68598;43.188;-80.242;2023-03-14T09:01:11;1;1;
77840;PMS5003;68598;43.188;-80.242;2023-03-14T09:03:37;0;0;
77840;PMS5003;68598;43.188;-80.242;2023-03-14T09:06:02;1;1;
77840;PMS5003;68598;43.188;-80.242;2023-03-14T09:08:27;1;1;
77840;PMS5003;68598;43.188;-80.242;2023-03-14T09:10:53;1;1;
77840;PMS5003;68598;43.188;-80.242;2023-03-14T09:13:19;0;0;
77840;PMS5003;68598;43.188;-80.242;2023-03-14T09:15:44;1;1;
77840;PMS5003;68598;43.188;-80.242;2023-03-14T09:18:10;0;0;
77840;PMS5003;68598;43.188;-80.242;2023-03-14T09:20:35;1;1;
77840;PMS5003;68598;43.188;-80.242;2023-03-14T09:23:01;1;1;
77840;PMS5003;68598;43.188;-80.242;2023-03-14T09:25:26;0;0;
77840;PMS5003;68598;43.188;-80.242;2023-03-14T09:27:52;1;1;
77840;PMS5003;68598;43.188;-80.242;2023-03-14T09:30:17;1;1;
77840;PMS5003;68598;43.188;-80.242;2023-03-14T09:32:43;0;0;
77840;PMS5003;68598;43.188;-80.242;2023-03-14T09:35:08;1;1;
77840;PMS5003;68598;43.188;-80.242;2023-03-14T09:37:34;0;0;
77840;PMS5003;68598;43.188;-80.242;2023-03-14T09:39:59;0;0;
77840;PMS5003;68598;43.188;-80.242;2023-03-14T09:42:25;1;1;
77840;PMS5003;68598;43.188;-80.242;2023-03-14T09:44:53;0;0;
77840;PMS5003;68598;43.188;-80.242;2023-03-14T09:47:16;1;1;
77840;PMS5003;68598;43.188;-80.242;2023-03-14T09:49:42;0;0;
77840;PMS5003;68598;43.188;-80.242;2023-03-14T09:52:10;0;0;
77840;PMS5003;68598;43.188;-80.242;2023-03-14T09:54:34;1;1;
77840;PMS5003;68598;43.188;-80.242;2023-03-14T09:56:58;1;1;
77840;PMS5003;68598;43.188;-80.242;2023-03-14T09:59:23;0;0;
77840;PMS5003;68598;43.188;-80.242;2023-03-14T10:01:49;0;0;
77840;PMS5003;68598;43.188;-80.242;2023-03-14T10:04:15;1;1;
77840;PMS5003;68598;43.188;-80.242;2023-03-14T10:06:40;0;0;
77840;PMS5003;68598;43.188;-80.242;2023-03-14T10:09:06;0;0;
77840;PMS5003;68598;43.188;-80.242;2023-03-14T10:11:31;0;0;
77840;PMS5003;68598;43.188;-80.242;2023-03-14T10:14:03;0;0;
77840;PMS5003;68598;43.188;-80.242;2023-03-14T10:16:25;0;0;
77840;PMS5003;68598;43.188;-80.242;2023-03-14T10:18:48;0;0;
77840;PMS5003;68598;43.188;-80.242;2023-03-14T10:21:21;0;0;
77840;PMS5003;68598;43.188;-80.242;2023-03-14T10:23:39;0;0;
77840;PMS5003;68598;43.188;-80.242;2023-03-14T10:26:07;1;1;
77840;PMS5003;68598;43.188;-80.242;2023-03-14T10:28:30;1;1;
77840;PMS5003;68598;43.188;-80.242;2023-03-14T10:30:55;0;0;
77840;PMS5003;68598;43.188;-80.242;2023-03-14T10:33:21;0;0;
77840;PMS5003;68598;43.188;-80.242;2023-03-14T10:35:47;0;0;
77840;PMS5003;68598;43.188;-80.242;2023-03-14T10:38:13;0;0;
77840;PMS5003;68598;43.188;-80.242;2023-03-14T10:40:38;0;0;
77840;PMS5003;68598;43.188;-80.242;2023-03-14T10:43:03;0;0;
77840;PMS5003;68598;43.188;-80.242;2023-03-14T10:45:31;0;0;
77840;PMS5003;68598;43.188;-80.242;2023-03-14T10:47:54;0;0;
77840;PMS5003;68598;43.188;-80.242;2023-03-14T10:50:22;0;0;
77840;PMS5003;68598;43.188;-80.242;2023-03-14T10:52:47;0;0;
77840;PMS5003;68598;43.188;-80.242;2023-03-14T10:55:11;0;0;
